createdAt,value
2022-11-24T00:01:20.177Z,6.50
2022-11-24T00:03:53.900Z,5.70
2022-11-24T00:06:24.204Z,6.33
2022-11-24T00:08:52.609Z,6.43
2022-11-24T00:11:22.442Z,6.50
2022-11-24T00:13:50.830Z,6.80
2022-11-24T00:16:22.154Z,6.10
2022-11-24T00:18:52.096Z,6.40
2022-11-24T00:21:21.029Z,6.83
2022-11-24T00:23:49.887Z,6.80
2022-11-24T00:26:19.221Z,6.87
2022-11-24T00:28:48.663Z,6.43
2022-11-24T00:31:20.513Z,6.90
2022-11-24T00:33:50.202Z,6.63
2022-11-24T00:36:19.962Z,7.20
2022-11-24T00:38:48.412Z,6.03
2022-11-24T00:41:16.344Z,7.40
2022-11-24T00:43:44.383Z,6.30
2022-11-24T00:46:12.787Z,6.60
2022-11-24T00:48:42.216Z,6.50
2022-11-24T00:51:11.755Z,6.07
2022-11-24T00:53:39.909Z,6.77
2022-11-24T00:56:09.506Z,7.07
2022-11-24T00:58:37.926Z,6.53
2022-11-24T01:01:09.235Z,6.90
2022-11-24T01:03:37.702Z,5.47
2022-11-24T01:06:09.243Z,6.90
2022-11-24T01:08:37.975Z,7.70
2022-11-24T01:11:11.325Z,6.43
2022-11-24T01:13:39.753Z,7.40
2022-11-24T01:16:14.089Z,6.77
2022-11-24T01:18:42.232Z,6.17
2022-11-24T01:21:11.743Z,6.37
2022-11-24T01:23:39.837Z,6.20
2022-11-24T01:26:08.704Z,6.07
2022-11-24T01:28:40.594Z,8.10
2022-11-24T01:31:12.287Z,7.07
2022-11-24T01:33:40.473Z,6.80
2022-11-24T01:36:08.923Z,7.07
2022-11-24T01:38:38.326Z,6.47
2022-11-24T01:41:08.859Z,6.70
2022-11-24T01:43:36.936Z,6.57
2022-11-24T01:46:14.463Z,6.47
2022-11-24T01:48:47.210Z,6.77
2022-11-24T01:51:18.607Z,6.30
2022-11-24T01:53:58.706Z,6.03
2022-11-24T01:56:27.753Z,6.00
2022-11-24T01:58:58.890Z,6.77
2022-11-24T02:01:27.067Z,6.87
2022-11-24T02:03:55.240Z,7.27
2022-11-24T02:06:28.540Z,7.17
2022-11-24T02:09:02.007Z,7.83
2022-11-24T02:11:35.073Z,5.67
2022-11-24T02:14:05.190Z,6.83
2022-11-24T02:16:35.297Z,7.23
2022-11-24T02:19:03.415Z,6.67
2022-11-24T02:21:31.456Z,6.77
2022-11-24T02:24:11.448Z,5.83
2022-11-24T02:26:45.149Z,6.33
2022-11-24T02:29:14.452Z,6.70
2022-11-24T02:31:46.208Z,6.93
2022-11-24T02:34:14.134Z,6.53
2022-11-24T02:36:42.261Z,6.33
2022-11-24T02:39:12.829Z,6.73
2022-11-24T02:41:44.916Z,6.87
2022-11-24T02:44:16.668Z,6.73
2022-11-24T02:46:44.728Z,6.55
2022-11-24T02:49:12.891Z,5.67
2022-11-24T02:51:41.002Z,6.47
2022-11-24T02:54:09.026Z,6.43
2022-11-24T02:56:37.029Z,6.07
2022-11-24T02:59:06.337Z,5.97
2022-11-24T03:01:34.398Z,6.90
2022-11-24T03:04:02.441Z,7.50
2022-11-24T03:06:30.442Z,6.67
2022-11-24T03:08:58.434Z,7.60
2022-11-24T03:11:26.494Z,6.57
2022-11-24T03:13:54.617Z,6.53
2022-11-24T03:16:24.121Z,7.03
2022-11-24T03:18:52.283Z,5.57
2022-11-24T03:21:20.935Z,7.63
2022-11-24T03:23:49.014Z,5.77
2022-11-24T03:26:18.883Z,7.10
2022-11-24T03:28:46.948Z,6.87
2022-11-24T03:31:15.073Z,6.13
2022-11-24T03:33:44.527Z,6.73
2022-11-24T03:36:12.593Z,6.40
2022-11-24T03:38:40.645Z,7.00
2022-11-24T03:41:08.729Z,6.63
2022-11-24T03:43:41.939Z,6.43
2022-11-24T03:46:12.139Z,7.03
2022-11-24T03:48:40.612Z,7.43
2022-11-24T03:51:11.463Z,6.73
2022-11-24T03:53:39.537Z,6.27
2022-11-24T03:56:08.125Z,7.20
2022-11-24T03:58:36.176Z,6.70
2022-11-24T04:01:04.452Z,6.97
2022-11-24T04:03:32.645Z,6.90
2022-11-24T04:06:00.598Z,7.70
2022-11-24T04:08:30.039Z,7.97
2022-11-24T04:10:58.067Z,7.10
2022-11-24T04:13:26.193Z,7.03
2022-11-24T04:15:54.486Z,7.53
2022-11-24T04:18:23.216Z,7.37
2022-11-24T04:20:51.902Z,7.13
2022-11-24T04:23:20.138Z,7.27
2022-11-24T04:25:49.543Z,6.10
2022-11-24T04:28:17.476Z,6.83
2022-11-24T04:30:45.526Z,6.97
2022-11-24T04:33:14.121Z,7.00
2022-11-24T04:35:42.123Z,6.83
2022-11-24T04:38:10.437Z,7.30
2022-11-24T04:40:38.929Z,7.60
2022-11-24T04:43:08.306Z,7.03
2022-11-24T04:45:36.692Z,5.83
2022-11-24T04:48:04.992Z,6.80
2022-11-24T04:50:33.044Z,6.13
2022-11-24T04:53:01.026Z,8.00
2022-11-24T04:55:29.074Z,7.40
2022-11-24T04:57:57.086Z,6.73
2022-11-24T05:00:26.500Z,7.63
2022-11-24T05:02:54.536Z,6.93
2022-11-24T05:05:23.006Z,7.10
2022-11-24T05:07:51.060Z,7.47
2022-11-24T05:10:37.541Z,6.97
2022-11-24T05:13:12.980Z,7.87
2022-11-24T05:15:43.241Z,8.03
2022-11-24T05:18:15.380Z,7.40
2022-11-24T05:20:44.879Z,6.03
2022-11-24T05:23:13.161Z,7.60
2022-11-24T05:25:47.298Z,7.53
2022-11-24T05:28:15.756Z,8.23
2022-11-24T05:30:45.398Z,7.40
2022-11-24T05:33:18.881Z,7.03
2022-11-24T05:35:47.293Z,8.00
2022-11-24T05:38:15.495Z,7.37
2022-11-24T05:40:43.929Z,7.37
2022-11-24T05:43:13.063Z,6.40
2022-11-24T05:45:40.995Z,7.40
2022-11-24T05:48:13.957Z,7.90
2022-11-24T05:50:41.949Z,7.37
2022-11-24T05:53:11.434Z,7.33
2022-11-24T05:55:40.320Z,7.03
2022-11-24T05:58:09.878Z,7.07
2022-11-24T06:00:38.058Z,6.80
2022-11-24T06:03:06.289Z,6.70
2022-11-24T06:05:35.757Z,7.33
2022-11-24T06:08:03.968Z,8.60
2022-11-24T06:10:32.270Z,9.73
2022-11-24T06:13:00.240Z,8.43
2022-11-24T06:15:28.138Z,7.37
2022-11-24T06:17:56.710Z,6.90
2022-11-24T06:20:31.225Z,7.90
2022-11-24T06:23:02.412Z,7.23
2022-11-24T06:25:30.758Z,8.17
2022-11-24T06:27:58.692Z,7.53
2022-11-24T06:30:26.660Z,8.23
2022-11-24T06:32:56.442Z,7.67
2022-11-24T06:35:24.404Z,7.17
2022-11-24T06:37:52.371Z,7.80
2022-11-24T06:40:21.895Z,7.03
2022-11-24T06:42:53.086Z,6.83
2022-11-24T06:45:21.680Z,8.50
2022-11-24T06:47:49.656Z,6.10
2022-11-24T06:50:17.819Z,6.37
2022-11-24T06:52:45.714Z,7.60
2022-11-24T06:55:13.611Z,6.93
2022-11-24T06:57:42.967Z,6.70
2022-11-24T07:00:11.942Z,8.50
2022-11-24T07:02:45.492Z,5.30
2022-11-24T07:05:13.949Z,7.60
2022-11-24T07:07:41.882Z,6.30
2022-11-24T07:10:10.107Z,6.50
2022-11-24T07:12:38.118Z,6.43
2022-11-24T07:15:09.148Z,6.57
2022-11-24T07:17:37.422Z,6.37
2022-11-24T07:20:06.176Z,6.47
2022-11-24T07:22:34.223Z,6.67
2022-11-24T07:25:02.795Z,8.27
2022-11-24T07:27:31.045Z,9.40
2022-11-24T07:29:58.891Z,7.77
2022-11-24T07:32:28.283Z,6.57
2022-11-24T07:34:56.276Z,7.67
2022-11-24T07:37:29.647Z,6.63
2022-11-24T07:39:59.169Z,5.93
2022-11-24T07:42:27.091Z,6.63
2022-11-24T07:44:55.134Z,7.17
2022-11-24T07:47:23.134Z,6.10
2022-11-24T07:49:52.642Z,6.00
2022-11-24T07:52:20.531Z,7.30
2022-11-24T07:54:48.584Z,6.53
2022-11-24T07:57:16.484Z,9.63
2022-11-24T07:59:44.490Z,8.40
2022-11-24T08:02:14.347Z,6.10
2022-11-24T08:04:42.195Z,7.57
2022-11-24T08:07:11.687Z,6.43
2022-11-24T08:09:39.661Z,6.63
2022-11-24T08:12:08.354Z,7.43
2022-11-24T08:14:36.954Z,6.10
2022-11-24T08:17:05.652Z,7.20
2022-11-24T08:19:34.902Z,5.90
2022-11-24T08:22:02.947Z,6.50
2022-11-24T08:24:32.552Z,8.00
2022-11-24T08:27:00.924Z,6.83
2022-11-24T08:29:29.799Z,6.93
2022-11-24T08:31:58.492Z,7.00
2022-11-24T08:34:30.494Z,9.33
2022-11-24T08:36:58.397Z,6.50
2022-11-24T08:39:26.321Z,7.83
2022-11-24T08:41:55.590Z,7.00
2022-11-24T08:44:23.642Z,6.63
2022-11-24T08:46:51.614Z,6.83
2022-11-24T08:49:20.222Z,6.77
2022-11-24T08:51:48.671Z,6.83
2022-11-24T08:54:18.902Z,8.87
2022-11-24T08:56:47.450Z,7.27
2022-11-24T08:59:16.953Z,7.30
2022-11-24T09:01:45.037Z,7.13
2022-11-24T09:04:13.069Z,6.87
2022-11-24T09:06:41.173Z,9.87
2022-11-24T09:09:10.920Z,7.37
2022-11-24T09:11:39.051Z,7.53
2022-11-24T09:14:07.664Z,7.47
2022-11-24T09:16:37.840Z,7.10
2022-11-24T09:19:08.104Z,6.97
2022-11-24T09:21:39.016Z,7.57
2022-11-24T09:24:08.464Z,7.80
2022-11-24T09:26:40.613Z,7.97
2022-11-24T09:29:12.536Z,7.50
2022-11-24T09:31:41.956Z,7.57
2022-11-24T09:34:14.154Z,8.23
2022-11-24T09:36:42.139Z,9.07
2022-11-24T09:39:11.570Z,9.67
2022-11-24T09:41:57.048Z,9.00
2022-11-24T09:44:54.842Z,8.00
2022-11-24T09:47:34.643Z,7.90
2022-11-24T09:50:06.197Z,7.97
2022-11-24T09:52:41.650Z,8.17
2022-11-24T09:55:31.599Z,8.80
2022-11-24T09:58:10.651Z,7.33
2022-11-24T10:00:39.061Z,7.83
2022-11-24T10:03:16.959Z,8.07
2022-11-24T10:05:46.630Z,7.63
2022-11-24T10:08:28.922Z,8.23
2022-11-24T10:11:00.626Z,8.00
2022-11-24T10:13:46.779Z,7.90
2022-11-24T10:16:22.874Z,9.00
2022-11-24T10:19:04.581Z,7.90
2022-11-24T10:21:44.403Z,10.00
2022-11-24T10:24:32.253Z,9.73
2022-11-24T10:27:04.022Z,7.37
2022-11-24T10:29:37.640Z,9.03
2022-11-24T10:32:12.927Z,7.67
2022-11-24T10:34:46.106Z,8.93
2022-11-24T10:37:21.223Z,8.93
2022-11-24T10:40:00.263Z,8.57
2022-11-24T10:42:31.503Z,7.93
2022-11-24T10:45:03.595Z,7.73
2022-11-24T10:47:32.068Z,8.70
2022-11-24T10:50:05.874Z,8.10
2022-11-24T10:52:42.350Z,8.70
2022-11-24T10:55:10.762Z,8.87
2022-11-24T10:57:41.549Z,8.50
2022-11-24T11:00:32.892Z,8.67
2022-11-24T11:03:19.095Z,8.57
2022-11-24T11:05:53.461Z,8.50
2022-11-24T11:08:27.290Z,9.73
2022-11-24T11:11:15.031Z,8.03
2022-11-24T11:14:03.500Z,7.67
2022-11-24T11:16:37.905Z,8.33
2022-11-24T11:19:26.034Z,8.50
2022-11-24T11:22:03.523Z,8.00
2022-11-24T11:24:31.891Z,8.00
2022-11-24T11:27:02.102Z,7.80
2022-11-24T11:35:14.367Z,8.27
2022-11-24T11:37:45.310Z,7.63
2022-11-24T11:40:17.112Z,8.10
2022-11-24T11:43:05.984Z,7.60
2022-11-24T11:45:36.790Z,7.00
2022-11-24T11:48:22.375Z,7.37
2022-11-24T11:51:21.725Z,7.50
2022-11-24T11:53:48.388Z,8.20
2022-11-24T11:56:25.469Z,7.43
2022-11-24T11:59:13.433Z,8.80
2022-11-24T12:02:10.651Z,8.13
2022-11-24T12:04:47.074Z,8.60
2022-11-24T12:07:40.184Z,8.55
2022-11-24T12:10:18.141Z,7.90
2022-11-24T12:13:30.829Z,7.17
2022-11-24T12:16:04.471Z,7.53
2022-11-24T12:18:57.193Z,7.90
2022-11-24T12:21:31.555Z,7.90
2022-11-24T12:24:11.756Z,7.87
2022-11-24T12:26:47.565Z,8.30
2022-11-24T12:29:53.632Z,8.40
2022-11-24T12:32:34.308Z,8.03
2022-11-24T12:35:16.793Z,8.03
2022-11-24T12:37:56.453Z,9.13
2022-11-24T12:40:39.764Z,8.93
2022-11-24T12:43:19.668Z,8.47
2022-11-24T12:45:55.422Z,7.87
2022-11-24T12:48:36.648Z,7.93
2022-11-24T12:51:07.742Z,8.20
2022-11-24T12:53:37.347Z,7.83
2022-11-24T12:56:08.281Z,8.03
2022-11-24T12:58:50.200Z,7.40
2022-11-24T13:01:30.495Z,7.47
2022-11-24T13:04:08.582Z,7.80
2022-11-24T13:06:49.334Z,7.87
2022-11-24T13:09:17.893Z,8.20
2022-11-24T13:11:47.152Z,7.87
2022-11-24T13:14:23.608Z,8.43
2022-11-24T13:19:45.850Z,8.80
2022-11-24T13:22:19.782Z,7.90
2022-11-24T13:25:10.241Z,7.47
2022-11-24T13:27:44.908Z,8.30
2022-11-24T13:30:52.384Z,8.37
2022-11-24T13:33:39.814Z,7.00
2022-11-24T13:36:32.988Z,7.70
2022-11-24T13:39:02.408Z,9.33
2022-11-24T13:42:10.549Z,9.03
2022-11-24T13:44:59.721Z,8.67
2022-11-24T13:47:42.724Z,9.40
2022-11-24T13:50:25.566Z,9.93
2022-11-24T13:53:01.371Z,9.97
2022-11-24T13:55:38.740Z,9.27
2022-11-24T13:58:28.916Z,8.23
2022-11-24T14:01:05.248Z,8.80
2022-11-24T14:03:35.834Z,8.53
2022-11-24T14:06:05.777Z,7.60
2022-11-24T14:08:37.085Z,6.90
2022-11-24T14:11:14.305Z,7.43
2022-11-24T14:13:42.253Z,6.73
2022-11-24T14:16:18.061Z,6.40
2022-11-24T14:18:47.961Z,7.27
2022-11-24T14:21:31.655Z,7.97
2022-11-24T14:24:13.778Z,7.10
2022-11-24T14:26:42.917Z,7.90
2022-11-24T14:29:16.909Z,7.37
2022-11-24T14:31:52.918Z,6.83
2022-11-24T14:34:25.233Z,7.07
2022-11-24T14:36:56.032Z,7.07
2022-11-24T14:39:25.937Z,6.27
2022-11-24T14:41:58.881Z,7.17
2022-11-24T14:44:29.744Z,6.57
2022-11-24T14:47:05.723Z,7.07
2022-11-24T14:49:35.430Z,6.97
2022-11-24T14:52:12.830Z,7.43
2022-11-24T14:54:48.487Z,6.43
2022-11-24T14:57:26.339Z,7.13
2022-11-24T15:00:19.461Z,6.10
2022-11-24T15:02:51.897Z,6.00
2022-11-24T15:05:21.624Z,6.63
2022-11-24T15:07:53.411Z,6.83
2022-11-24T15:10:33.748Z,6.63
2022-11-24T15:13:04.417Z,6.57
2022-11-24T15:15:35.482Z,6.67
2022-11-24T15:18:05.155Z,6.63
2022-11-24T15:20:36.262Z,7.03
2022-11-24T15:23:21.959Z,6.40
2022-11-24T15:25:51.061Z,6.23
2022-11-24T15:28:19.624Z,7.13
2022-11-24T15:30:47.589Z,7.33
2022-11-24T15:33:17.608Z,8.20
2022-11-24T15:35:45.781Z,8.97
2022-11-24T15:38:15.857Z,8.80
2022-11-24T15:40:46.720Z,9.47
2022-11-24T15:43:22.369Z,13.33
2022-11-24T15:45:50.290Z,7.40
2022-11-24T15:48:18.570Z,8.47
2022-11-24T15:50:47.224Z,9.13
2022-11-24T15:53:22.432Z,7.33
2022-11-24T15:55:51.329Z,7.53
2022-11-24T15:58:19.661Z,8.53
2022-11-24T16:00:47.597Z,6.60
2022-11-24T16:03:45.852Z,6.83
2022-11-24T16:06:03.514Z,7.50
2022-11-24T16:08:32.806Z,6.83
2022-11-24T16:11:00.640Z,5.90
2022-11-24T16:13:28.539Z,6.63
2022-11-24T16:15:56.596Z,7.00
2022-11-24T16:18:26.384Z,6.63
2022-11-24T16:20:54.227Z,6.40
2022-11-24T16:23:22.222Z,7.27
2022-11-24T16:25:51.551Z,6.47
2022-11-24T16:28:20.369Z,7.00
2022-11-24T16:30:50.807Z,7.27
2022-11-24T16:33:20.489Z,6.33
2022-11-24T16:35:49.289Z,6.67
2022-11-24T16:38:17.740Z,6.93
2022-11-24T16:40:45.956Z,6.73
2022-11-24T16:43:15.327Z,6.30
2022-11-24T16:45:45.481Z,6.97
2022-11-24T16:48:13.721Z,7.10
2022-11-24T16:50:41.758Z,6.67
2022-11-24T16:53:09.686Z,6.60
2022-11-24T16:55:37.582Z,6.33
2022-11-24T16:58:06.025Z,7.77
2022-11-24T17:00:35.241Z,6.30
2022-11-24T17:03:03.185Z,6.70
2022-11-24T17:05:31.133Z,6.60
2022-11-24T17:07:59.634Z,6.37
2022-11-24T17:10:27.669Z,6.97
2022-11-24T17:12:55.502Z,6.00
2022-11-24T17:15:34.554Z,5.97
2022-11-24T17:18:24.055Z,5.87
2022-11-24T17:20:53.042Z,6.63
2022-11-24T17:23:20.937Z,5.87
2022-11-24T17:25:49.242Z,5.90
2022-11-24T17:28:17.212Z,5.60
2022-11-24T17:30:45.173Z,6.07
2022-11-24T17:33:14.470Z,5.90
2022-11-24T17:35:42.400Z,6.93
2022-11-24T17:38:10.399Z,5.93
2022-11-24T17:40:38.416Z,6.77
2022-11-24T17:43:06.342Z,6.17
2022-11-24T17:45:34.385Z,6.17
2022-11-24T17:48:02.465Z,7.00
2022-11-24T17:50:31.769Z,7.73
2022-11-24T17:52:59.662Z,5.43
2022-11-24T17:55:27.905Z,7.17
2022-11-24T17:57:57.096Z,6.57
2022-11-24T18:00:25.386Z,6.35
2022-11-24T18:02:53.258Z,5.70
2022-11-24T18:05:21.797Z,6.07
2022-11-24T18:07:51.187Z,6.67
2022-11-24T18:10:20.179Z,6.67
2022-11-24T18:12:48.215Z,6.13
2022-11-24T18:15:16.074Z,5.83
2022-11-24T18:17:43.997Z,6.77
2022-11-24T18:20:12.513Z,6.60
2022-11-24T18:23:04.697Z,6.07
2022-11-24T18:25:29.782Z,6.20
2022-11-24T18:27:58.001Z,5.53
2022-11-24T18:30:26.080Z,6.63
2022-11-24T18:32:53.957Z,6.13
2022-11-24T18:35:21.852Z,6.83
2022-11-24T18:37:49.795Z,6.70
2022-11-24T18:40:20.111Z,6.33
2022-11-24T18:42:49.378Z,6.70
2022-11-24T18:45:17.504Z,6.13
2022-11-24T18:47:45.461Z,6.33
2022-11-24T18:50:13.413Z,5.77
2022-11-24T18:52:41.502Z,5.73
2022-11-24T18:55:09.962Z,5.93
2022-11-24T18:57:37.863Z,7.20
2022-11-24T19:00:08.754Z,6.47
2022-11-24T19:02:36.947Z,5.43
2022-11-24T19:05:07.762Z,5.60
2022-11-24T19:07:35.833Z,6.03
2022-11-24T19:10:03.851Z,6.10
2022-11-24T19:12:31.759Z,6.63
2022-11-24T19:14:59.698Z,6.43
2022-11-24T19:17:28.951Z,5.87
2022-11-24T19:19:57.299Z,6.77
2022-11-24T19:22:25.300Z,5.60
2022-11-24T19:24:53.348Z,5.90
2022-11-24T19:27:22.105Z,6.97
2022-11-24T19:29:50.027Z,5.57
2022-11-24T19:32:19.543Z,5.83
2022-11-24T19:34:49.370Z,5.90
2022-11-24T19:37:17.448Z,6.90
2022-11-24T19:39:45.405Z,6.60
2022-11-24T19:42:13.816Z,6.30
2022-11-24T19:44:41.720Z,6.17
2022-11-24T19:47:09.647Z,5.70
2022-11-24T19:49:37.587Z,6.23
2022-11-24T19:52:06.893Z,6.53
2022-11-24T19:54:35.716Z,6.37
2022-11-24T19:57:03.809Z,6.43
2022-11-24T19:59:31.730Z,6.07
2022-11-24T20:02:00.225Z,6.17
2022-11-24T20:04:28.288Z,5.70
2022-11-24T20:06:56.385Z,5.90
2022-11-24T20:09:26.053Z,5.67
2022-11-24T20:11:53.937Z,5.67
2022-11-24T20:14:22.136Z,6.43
2022-11-24T20:16:50.158Z,5.80
2022-11-24T20:19:19.109Z,6.10
2022-11-24T20:21:49.419Z,6.30
2022-11-24T20:24:19.216Z,6.23
2022-11-24T20:26:51.011Z,6.53
2022-11-24T20:29:19.218Z,6.60
2022-11-24T20:31:50.128Z,6.93
2022-11-24T20:34:18.147Z,6.83
2022-11-24T20:36:48.065Z,6.57
2022-11-24T20:39:18.237Z,6.00
2022-11-24T20:41:46.319Z,6.73
2022-11-24T20:44:17.843Z,5.30
2022-11-24T20:46:47.887Z,6.57
2022-11-24T20:49:18.864Z,6.17
2022-11-24T20:51:48.091Z,6.93
2022-11-24T20:54:17.674Z,5.90
2022-11-24T20:56:47.430Z,6.90
2022-11-24T20:59:21.511Z,5.90
2022-11-24T21:01:50.459Z,6.50
2022-11-24T21:04:21.495Z,6.67
2022-11-24T21:06:50.117Z,6.53
2022-11-24T21:09:18.994Z,6.37
2022-11-24T21:11:47.209Z,6.00
2022-11-24T21:14:16.704Z,6.63
2022-11-24T21:16:44.989Z,7.30
2022-11-24T21:19:17.173Z,6.50
2022-11-24T21:21:47.460Z,6.67
2022-11-24T21:24:17.126Z,6.63
2022-11-24T21:26:47.582Z,6.37
2022-11-24T21:29:20.277Z,6.33
2022-11-24T21:31:48.605Z,5.70
2022-11-24T21:34:18.702Z,5.97
2022-11-24T21:36:46.733Z,6.60
2022-11-24T21:39:15.915Z,6.97
2022-11-24T21:41:44.306Z,7.87
2022-11-24T21:44:12.863Z,5.60
2022-11-24T21:46:48.276Z,7.63
2022-11-24T21:49:18.909Z,6.63
2022-11-24T21:51:47.153Z,6.73
2022-11-24T21:54:15.013Z,5.90
2022-11-24T21:56:42.974Z,7.63
2022-11-24T21:59:11.171Z,5.80
2022-11-24T22:01:39.178Z,6.60
2022-11-24T22:04:08.505Z,6.67
2022-11-24T22:06:36.714Z,6.37
2022-11-24T22:09:04.796Z,6.93
2022-11-24T22:11:32.901Z,6.80
2022-11-24T22:14:00.860Z,5.93
2022-11-24T22:16:29.005Z,6.03
2022-11-24T22:18:57.024Z,6.50
2022-11-24T22:21:30.128Z,5.67
2022-11-24T22:23:58.147Z,6.17
2022-11-24T22:26:27.575Z,5.80
2022-11-24T22:28:56.321Z,6.47
2022-11-24T22:31:26.260Z,6.40
2022-11-24T22:33:55.167Z,6.43
2022-11-24T22:36:25.212Z,5.93
2022-11-24T22:38:56.577Z,6.63
2022-11-24T22:41:24.556Z,6.03
2022-11-24T22:43:53.032Z,6.37
2022-11-24T22:46:23.647Z,5.93
2022-11-24T22:48:53.292Z,5.87
2022-11-24T22:51:23.377Z,5.60
2022-11-24T22:53:53.412Z,6.03
2022-11-24T22:56:23.354Z,5.90
2022-11-24T22:58:51.998Z,6.63
2022-11-24T23:01:24.085Z,5.90
2022-11-24T23:03:54.377Z,6.47
2022-11-24T23:06:24.712Z,6.87
2022-11-24T23:08:53.499Z,5.90
2022-11-24T23:11:30.757Z,6.60
2022-11-24T23:14:01.397Z,6.60
2022-11-24T23:16:30.124Z,6.80
2022-11-24T23:18:58.667Z,6.33
2022-11-24T23:21:28.208Z,6.60
2022-11-24T23:23:56.910Z,6.17
2022-11-24T23:26:28.196Z,6.50
2022-11-24T23:28:56.255Z,5.97
2022-11-24T23:31:27.531Z,6.77
2022-11-24T23:33:55.769Z,6.07
2022-11-24T23:36:23.733Z,6.57
2022-11-24T23:38:52.216Z,5.80
2022-11-24T23:41:22.712Z,6.67
2022-11-24T23:43:53.351Z,6.40
2022-11-24T23:46:23.146Z,6.37
2022-11-24T23:48:52.350Z,6.67
2022-11-24T23:51:22.258Z,6.33
2022-11-24T23:53:50.353Z,6.33
2022-11-24T23:56:20.482Z,6.80
2022-11-24T23:58:48.854Z,6.77
